Time;durP1;ratioP1;P1;durP2;ratioP2;P2;SDS_P1;SDS_P2;PMS_P1;PMS_P2;Temp;Humidity;BMP_temperature;BMP_pressure;BME280_temperature;BME280_humidity;BME280_pressure;Samples;Min_cycle;Max_cycle;Signal;HPM_P1;HPM_P2
2021/05/13 00:00:21;;;;;;;5.38;2.03;;;;;;;;;;4958546;28;20042;-77
2021/05/13 00:02:46;;;;;;;4.32;1.75;;;;;;;;;;4982265;28;20042;-78
2021/05/13 00:05:12;;;;;;;3.47;1.95;;;;;;;;;;4990700;28;20460;-78
2021/05/13 00:07:37;;;;;;;3.17;1.70;;;;;;;;;;4990697;28;20041;-78
2021/05/13 00:10:07;;;;;;;3.60;1.77;;;;;;;;;;4975355;28;20046;-78
2021/05/13 00:15:22;;;;;;;5.72;2.40;;;;;;;;;;4994730;28;20038;-78
2021/05/13 00:17:50;;;;;;;6.25;1.98;;;;;;;;;;4970584;28;20169;-78
2021/05/13 00:20:21;;;;;;;4.45;1.88;;;;;;;;;;4943135;28;20038;-78
2021/05/13 00:22:47;;;;;;;5.72;2.65;;;;;;;;;;4971291;28;20042;-78
2021/05/13 00:25:13;;;;;;;5.22;1.98;;;;;;;;;;4970391;28;20046;-78
2021/05/13 00:27:38;;;;;;;3.60;1.80;;;;;;;;;;4960430;28;20861;-78
2021/05/13 00:30:06;;;;;;;5.57;1.95;;;;;;;;;;4962303;28;20404;-78
2021/05/13 00:32:33;;;;;;;3.80;1.73;;;;;;;;;;4977891;28;20034;-78
2021/05/13 00:34:58;;;;;;;4.53;1.80;;;;;;;;;;4962166;28;20504;-78
2021/05/13 00:37:24;;;;;;;4.55;2.05;;;;;;;;;;4977902;28;20069;-78
2021/05/13 00:39:49;;;;;;;3.88;1.90;;;;;;;;;;4943673;28;20047;-78
2021/05/13 00:42:15;;;;;;;5.03;1.98;;;;;;;;;;4973957;28;20043;-78
2021/05/13 00:44:44;;;;;;;5.20;2.20;;;;;;;;;;4957952;28;20078;-78
2021/05/13 00:47:12;;;;;;;4.30;2.10;;;;;;;;;;4958560;28;20042;-78
2021/05/13 00:49:38;;;;;;;3.70;1.70;;;;;;;;;;4942890;28;20557;-78
2021/05/13 00:52:03;;;;;;;3.38;2.00;;;;;;;;;;4942452;28;20125;-78
2021/05/13 00:54:30;;;;;;;4.28;1.80;;;;;;;;;;4942296;28;20039;-78
2021/05/13 00:56:55;;;;;;;3.63;1.98;;;;;;;;;;4953570;28;20047;-78
2021/05/13 00:59:24;;;;;;;3.45;1.70;;;;;;;;;;4977323;28;20579;-77
2021/05/13 01:01:50;;;;;;;3.30;1.90;;;;;;;;;;4993686;28;20069;-78
2021/05/13 01:04:19;;;;;;;4.60;1.88;;;;;;;;;;4977426;28;20066;-78
2021/05/13 01:06:46;;;;;;;4.40;2.33;;;;;;;;;;4961498;28;20185;-78
2021/05/13 01:09:12;;;;;;;3.92;1.90;;;;;;;;;;4961337;28;20042;-78
2021/05/13 01:11:43;;;;;;;5.03;2.05;;;;;;;;;;4972451;28;20041;-78
2021/05/13 01:14:17;;;;;;;4.80;2.10;;;;;;;;;;4970539;28;20174;-77
2021/05/13 01:19:45;;;;;;;4.13;1.50;;;;;;;;;;4961463;28;20468;-78
2021/05/13 01:22:11;;;;;;;;;;;;;;;;;;4950911;28;20089;-78
2021/05/13 01:24:36;;;;;;;4.47;1.60;;;;;;;;;;4973971;28;20332;-78
2021/05/13 01:27:02;;;;;;;4.28;1.92;;;;;;;;;;4973450;28;20043;-78
2021/05/13 01:29:27;;;;;;;5.68;2.35;;;;;;;;;;4964069;28;20433;-77
2021/05/13 01:31:53;;;;;;;3.78;1.65;;;;;;;;;;4946437;28;20129;-78
2021/05/13 01:34:19;;;;;;;3.58;1.40;;;;;;;;;;4973392;28;20030;-78
2021/05/13 01:36:44;;;;;;;4.32;2.13;;;;;;;;;;4957261;28;20489;-77
2021/05/13 01:39:10;;;;;;;4.57;1.88;;;;;;;;;;4925731;28;20038;-78
2021/05/13 01:41:36;;;;;;;4.13;1.60;;;;;;;;;;4957028;28;20505;-78
2021/05/13 01:44:02;;;;;;;4.78;1.98;;;;;;;;;;4940977;28;20214;-78
2021/05/13 01:46:27;;;;;;;3.35;1.65;;;;;;;;;;4941017;28;20038;-78
2021/05/13 01:48:52;;;;;;;5.60;1.80;;;;;;;;;;4941447;28;20071;-77
2021/05/13 01:51:18;;;;;;;4.30;1.67;;;;;;;;;;4941240;28;20446;-78
2021/05/13 01:53:43;;;;;;;4.55;1.80;;;;;;;;;;4969350;28;20420;-78
2021/05/13 01:56:09;;;;;;;2.33;1.30;;;;;;;;;;4972336;28;20046;-78
2021/05/13 01:58:35;;;;;;;4.15;1.40;;;;;;;;;;4991880;28;20023;-78
2021/05/13 02:01:01;;;;;;;3.15;1.10;;;;;;;;;;4992527;28;20042;-78
2021/05/13 02:03:26;;;;;;;3.30;1.70;;;;;;;;;;4947289;28;20164;-77
2021/05/13 02:05:52;;;;;;;3.97;1.70;;;;;;;;;;4970876;28;20047;-78
2021/05/13 02:08:18;;;;;;;4.95;1.92;;;;;;;;;;4957085;28;20039;-78
2021/05/13 02:10:43;;;;;;;3.13;1.65;;;;;;;;;;4956674;28;20199;-78
2021/05/13 02:13:10;;;;;;;4.32;1.60;;;;;;;;;;4956362;28;20053;-78
2021/05/13 02:15:35;;;;;;;4.57;1.60;;;;;;;;;;4956355;28;20050;-78
2021/05/13 02:18:01;;;;;;;5.63;2.20;;;;;;;;;;4966040;28;20409;-78
2021/05/13 02:20:26;;;;;;;3.25;1.48;;;;;;;;;;4925025;28;20037;-78
2021/05/13 02:22:54;;;;;;;5.30;1.75;;;;;;;;;;4956374;28;20369;-77
2021/05/13 02:25:19;;;;;;;4.28;1.70;;;;;;;;;;5006644;28;20038;-78
2021/05/13 02:27:44;;;;;;;4.20;1.63;;;;;;;;;;4959281;28;20046;-78
2021/05/13 02:30:11;;;;;;;2.22;1.00;;;;;;;;;;4991974;28;20061;-78
2021/05/13 02:32:37;;;;;;;6.63;1.90;;;;;;;;;;4987572;28;20030;-78
2021/05/13 02:35:04;;;;;;;4.38;1.67;;;;;;;;;;4959725;28;20113;-77
2021/05/13 02:37:29;;;;;;;3.50;1.60;;;;;;;;;;4959579;28;20026;-78
2021/05/13 02:39:55;;;;;;;4.85;1.40;;;;;;;;;;4958830;28;20398;-78
2021/05/13 02:42:20;;;;;;;4.07;1.40;;;;;;;;;;4958714;28;20038;-78
2021/05/13 02:44:46;;;;;;;2.72;1.25;;;;;;;;;;4975469;28;20034;-78
2021/05/13 02:47:11;;;;;;;3.30;1.60;;;;;;;;;;4974120;28;20421;-78
2021/05/13 02:49:37;;;;;;;4.40;1.35;;;;;;;;;;4959321;28;20103;-78
2021/05/13 02:52:03;;;;;;;3.80;1.70;;;;;;;;;;4975329;28;20042;-78
2021/05/13 02:54:29;;;;;;;4.28;1.48;;;;;;;;;;4991532;28;20448;-77
2021/05/13 02:56:54;;;;;;;3.28;1.48;;;;;;;;;;4991269;28;20085;-78
2021/05/13 02:59:20;;;;;;;3.05;1.15;;;;;;;;;;4989661;28;20394;-78
2021/05/13 03:01:45;;;;;;;2.88;1.10;;;;;;;;;;4974489;28;20417;-78
2021/05/13 03:04:11;;;;;;;3.63;1.50;;;;;;;;;;4989659;28;20046;-78
2021/05/13 03:06:37;;;;;;;3.17;1.77;;;;;;;;;;4974844;28;20042;-78
2021/05/13 03:09:04;;;;;;;4.18;1.55;;;;;;;;;;4991657;28;20042;-78
2021/05/13 03:11:29;;;;;;;3.47;1.40;;;;;;;;;;4990808;28;20042;-78
2021/05/13 03:13:57;;;;;;;4.18;1.73;;;;;;;;;;4974833;28;20049;-78
2021/05/13 03:16:23;;;;;;;2.50;1.30;;;;;;;;;;4976208;28;20038;-77
2021/05/13 03:18:53;;;;;;;4.47;1.42;;;;;;;;;;4974741;28;20052;-78
2021/05/13 03:24:36;;;;;;;2.72;1.23;;;;;;;;;;5005095;28;20075;-78
2021/05/13 03:26:56;;;;;;;4.70;1.20;;;;;;;;;;4980635;28;20493;-77
2021/05/13 03:29:22;;;;;;;4.15;2.17;;;;;;;;;;4972953;28;20536;-78
2021/05/13 03:31:47;;;;;;;3.55;1.33;;;;;;;;;;4971919;28;20035;-77
2021/05/13 03:34:14;;;;;;;2.60;1.00;;;;;;;;;;4955824;28;20834;-78
2021/05/13 03:36:40;;;;;;;2.67;1.40;;;;;;;;;;4945676;28;20042;-78
2021/05/13 03:39:07;;;;;;;3.47;1.30;;;;;;;;;;4939737;28;20122;-78
2021/05/13 03:41:32;;;;;;;2.25;0.98;;;;;;;;;;4939312;28;20575;-78
2021/05/13 03:43:58;;;;;;;3.83;1.25;;;;;;;;;;4924177;28;20035;-78
2021/05/13 03:46:23;;;;;;;3.22;1.40;;;;;;;;;;4927659;28;20042;-78
2021/05/13 03:48:49;;;;;;;4.32;1.70;;;;;;;;;;4943666;28;20114;-79
2021/05/13 03:51:15;;;;;;;3.08;1.23;;;;;;;;;;4943411;28;20118;-78
2021/05/13 03:53:40;;;;;;;3.10;1.15;;;;;;;;;;4958054;28;20092;-78
2021/05/13 03:56:06;;;;;;;4.25;1.35;;;;;;;;;;4978177;28;20381;-78
2021/05/13 03:58:38;;;;;;;3.47;1.48;;;;;;;;;;4952497;28;20465;-78
2021/05/13 04:03:32;;;;;;;3.50;1.58;;;;;;;;;;4976066;28;20037;-77
2021/05/13 04:05:58;;;;;;;3.83;1.45;;;;;;;;;;4961863;28;20121;-78
2021/05/13 04:08:23;;;;;;;3.72;1.50;;;;;;;;;;4978691;28;20416;-78
2021/05/13 04:10:49;;;;;;;3.88;1.40;;;;;;;;;;4961863;28;20117;-77
2021/05/13 04:13:15;;;;;;;3.25;1.65;;;;;;;;;;4976614;28;20045;-78
2021/05/13 04:15:44;;;;;;;3.88;1.88;;;;;;;;;;4981917;28;20069;-78
2021/05/13 04:18:10;;;;;;;3.55;1.20;;;;;;;;;;4979047;28;20088;-78
2021/05/13 04:20:35;;;;;;;3.92;1.77;;;;;;;;;;4962069;28;20082;-78
2021/05/13 04:23:03;;;;;;;4.55;1.48;;;;;;;;;;4978063;28;20042;-78
2021/05/13 04:25:28;;;;;;;3.70;1.40;;;;;;;;;;4993755;28;20050;-78
2021/05/13 04:27:54;;;;;;;3.28;1.25;;;;;;;;;;4975289;28;20038;-78
2021/05/13 04:30:19;;;;;;;4.25;1.25;;;;;;;;;;4959952;28;20115;-79
2021/05/13 04:32:45;;;;;;;4.05;1.40;;;;;;;;;;4977964;28;20034;-78
2021/05/13 04:35:12;;;;;;;2.35;1.17;;;;;;;;;;4962280;28;20038;-78
2021/05/13 04:37:39;;;;;;;4.03;1.55;;;;;;;;;;4946051;28;20513;-78
2021/05/13 04:40:05;;;;;;;3.25;1.20;;;;;;;;;;4978113;28;20042;-78
2021/05/13 04:42:30;;;;;;;2.75;1.27;;;;;;;;;;4977435;28;20038;-78
2021/05/13 04:44:57;;;;;;;3.17;1.23;;;;;;;;;;4977512;28;20173;-78
2021/05/13 04:49:48;;;;;;;5.35;1.33;;;;;;;;;;4973785;28;20043;-78
2021/05/13 04:52:14;;;;;;;3.78;1.23;;;;;;;;;;4957147;28;20075;-78
2021/05/13 04:54:39;;;;;;;4.13;1.20;;;;;;;;;;4974390;28;20070;-78
2021/05/13 04:57:06;;;;;;;3.58;1.27;;;;;;;;;;4957320;28;20413;-81
2021/05/13 04:59:31;;;;;;;3.03;1.08;;;;;;;;;;4958194;28;20041;-80
2021/05/13 05:01:57;;;;;;;5.10;1.13;;;;;;;;;;4946255;28;20435;-80
2021/05/13 05:04:22;;;;;;;3.58;1.23;;;;;;;;;;4977617;28;20444;-80
2021/05/13 05:06:47;;;;;;;3.15;1.08;;;;;;;;;;4960869;28;20038;-80
2021/05/13 05:09:13;;;;;;;3.50;1.25;;;;;;;;;;4961495;28;20417;-80
2021/05/13 05:11:39;;;;;;;2.97;1.50;;;;;;;;;;4933911;28;20428;-80
2021/05/13 05:14:04;;;;;;;4.82;1.40;;;;;;;;;;4958221;28;20531;-80
2021/05/13 05:16:30;;;;;;;3.83;1.40;;;;;;;;;;4957746;28;20037;-80
2021/05/13 05:18:55;;;;;;;4.18;1.38;;;;;;;;;;4941718;28;20039;-80
2021/05/13 05:21:20;;;;;;;2.53;1.00;;;;;;;;;;4946517;28;20037;-80
2021/05/13 05:23:46;;;;;;;3.45;1.20;;;;;;;;;;4961113;28;20050;-80
2021/05/13 05:26:11;;;;;;;4.68;1.02;;;;;;;;;;4960825;28;20049;-80
2021/05/13 05:28:37;;;;;;;3.80;1.15;;;;;;;;;;4958734;28;20069;-80
2021/05/13 05:31:02;;;;;;;4.55;1.25;;;;;;;;;;4941677;28;20038;-80
2021/05/13 05:33:28;;;;;;;2.55;1.00;;;;;;;;;;4941455;28;20057;-80
2021/05/13 05:35:56;;;;;;;2.80;1.15;;;;;;;;;;4960466;28;20062;-80
2021/05/13 05:38:21;;;;;;;4.60;1.30;;;;;;;;;;4949197;28;20505;-81
2021/05/13 05:40:47;;;;;;;2.60;1.00;;;;;;;;;;4956964;28;20540;-80
2021/05/13 05:43:13;;;;;;;3.25;1.23;;;;;;;;;;4940984;28;20042;-80
2021/05/13 05:45:38;;;;;;;3.00;1.25;;;;;;;;;;4971476;28;20105;-80
2021/05/13 05:48:04;;;;;;;2.83;1.00;;;;;;;;;;4972697;28;20068;-80
2021/05/13 05:50:31;;;;;;;3.63;1.48;;;;;;;;;;4925166;28;20045;-81
2021/05/13 05:52:57;;;;;;;3.90;1.45;;;;;;;;;;4957225;28;20035;-80
2021/05/13 05:55:22;;;;;;;3.40;1.30;;;;;;;;;;4957441;28;20076;-80
2021/05/13 05:57:48;;;;;;;3.35;1.27;;;;;;;;;;4956783;28;20133;-80
2021/05/13 06:00:14;;;;;;;2.75;1.10;;;;;;;;;;4931824;28;20461;-80
2021/05/13 06:02:39;;;;;;;2.55;1.08;;;;;;;;;;4947438;28;20043;-79
2021/05/13 06:05:05;;;;;;;3.65;1.23;;;;;;;;;;4939834;28;20117;-80
2021/05/13 06:07:32;;;;;;;2.67;1.10;;;;;;;;;;4939236;28;20038;-80
2021/05/13 06:10:02;;;;;;;2.75;1.10;;;;;;;;;;4939434;28;20031;-82
2021/05/13 06:12:27;;;;;;;3.20;1.50;;;;;;;;;;4938147;28;20046;-82
2021/05/13 06:14:53;;;;;;;2.53;1.23;;;;;;;;;;4944053;28;20134;-83
2021/05/13 06:17:19;;;;;;;5.80;1.20;;;;;;;;;;4963410;28;20130;-84
2021/05/13 06:19:45;;;;;;;5.13;1.17;;;;;;;;;;4977164;28;20034;-82
2021/05/13 06:22:10;;;;;;;4.03;1.10;;;;;;;;;;4991913;28;20065;-82
2021/05/13 06:24:36;;;;;;;2.55;1.08;;;;;;;;;;4944293;28;20035;-86
2021/05/13 06:27:05;;;;;;;3.28;1.20;;;;;;;;;;4960292;28;20030;-86
2021/05/13 06:29:31;;;;;;;3.30;0.77;;;;;;;;;;4960513;28;20030;-85
2021/05/13 06:31:58;;;;;;;3.83;1.13;;;;;;;;;;4962350;28;20036;-85
2021/05/13 06:34:24;;;;;;;2.35;1.05;;;;;;;;;;4979233;28;20034;-85
2021/05/13 06:36:51;;;;;;;5.45;1.58;;;;;;;;;;4963243;28;20476;-85
2021/05/13 06:39:16;;;;;;;4.82;1.30;;;;;;;;;;4963439;28;20038;-84
2021/05/13 06:41:42;;;;;;;4.53;0.82;;;;;;;;;;4978924;28;20451;-84
2021/05/13 06:44:08;;;;;;;3.13;0.82;;;;;;;;;;4979502;28;20064;-84
2021/05/13 06:46:35;;;;;;;2.08;0.90;;;;;;;;;;4963170;28;20061;-85
2021/05/13 06:49:01;;;;;;;3.08;0.95;;;;;;;;;;4962809;28;20125;-85
2021/05/13 06:51:27;;;;;;;5.07;1.00;;;;;;;;;;4962957;28;20038;-84
2021/05/13 06:53:52;;;;;;;3.58;1.30;;;;;;;;;;4962977;28;20064;-82
2021/05/13 06:56:18;;;;;;;2.85;1.00;;;;;;;;;;4994924;28;20034;-82
2021/05/13 06:58:44;;;;;;;3.28;0.93;;;;;;;;;;4978620;28;20042;-83
2021/05/13 07:01:11;;;;;;;5.38;1.30;;;;;;;;;;4945202;28;20035;-86
2021/05/13 07:03:36;;;;;;;5.10;1.40;;;;;;;;;;4962531;28;20038;-83
2021/05/13 07:06:03;;;;;;;3.63;1.10;;;;;;;;;;4978969;28;20076;-84
2021/05/13 07:08:29;;;;;;;6.05;1.50;;;;;;;;;;4962707;28;20030;-83
2021/05/13 07:10:56;;;;;;;4.25;1.20;;;;;;;;;;4995149;28;20034;-84
2021/05/13 07:13:23;;;;;;;2.38;0.98;;;;;;;;;;4995195;28;20034;-85
2021/05/13 07:15:48;;;;;;;5.20;2.33;;;;;;;;;;4962551;28;20049;-86
2021/05/13 07:18:14;;;;;;;94.00;65.90;;;;;;;;;;4994817;28;20435;-85
2021/05/13 07:20:40;;;;;;;134.68;96.00;;;;;;;;;;4972311;28;20037;-86
2021/05/13 07:23:06;;;;;;;238.25;165.32;;;;;;;;;;4940248;28;20027;-87
2021/05/13 07:25:35;;;;;;;233.50;168.70;;;;;;;;;;4941250;28;20054;-87
2021/05/13 07:28:00;;;;;;;222.68;158.45;;;;;;;;;;4940482;28;20090;-87
2021/05/13 07:30:28;;;;;;;213.68;155.35;;;;;;;;;;4924554;28;20035;-86
2021/05/13 07:32:55;;;;;;;175.02;126.28;;;;;;;;;;4945230;28;20039;-86
2021/05/13 07:35:22;;;;;;;163.60;113.20;;;;;;;;;;4958159;28;20030;-86
2021/05/13 07:37:49;;;;;;;143.85;101.72;;;;;;;;;;4959634;28;20555;-87
2021/05/13 07:40:16;;;;;;;129.88;93.38;;;;;;;;;;4963137;28;20034;-86
2021/05/13 07:42:42;;;;;;;118.65;83.15;;;;;;;;;;4959505;28;20117;-86
2021/05/13 07:45:08;;;;;;;106.38;73.40;;;;;;;;;;4959393;28;20573;-86
2021/05/13 07:47:38;;;;;;;118.50;78.85;;;;;;;;;;4975091;28;20066;-86
2021/05/13 07:50:08;;;;;;;117.15;80.85;;;;;;;;;;4943817;28;20085;-86
2021/05/13 07:52:34;;;;;;;113.95;73.75;;;;;;;;;;4959510;28;20114;-86
2021/05/13 07:55:02;;;;;;;101.78;64.38;;;;;;;;;;4959612;28;20137;-87
2021/05/13 07:57:27;;;;;;;91.38;58.15;;;;;;;;;;4959418;28;20085;-86
2021/05/13 07:59:53;;;;;;;74.70;49.95;;;;;;;;;;4940036;28;20559;-86
2021/05/13 08:02:19;;;;;;;69.53;45.10;;;;;;;;;;4940360;28;20114;-87
2021/05/13 08:04:45;;;;;;;56.80;38.03;;;;;;;;;;4943282;28;20458;-86
2021/05/13 08:07:11;;;;;;;51.15;32.97;;;;;;;;;;4943040;28;20030;-87
2021/05/13 08:09:37;;;;;;;38.92;28.02;;;;;;;;;;4941933;28;20165;-86
2021/05/13 08:12:03;;;;;;;36.35;25.13;;;;;;;;;;4958739;28;20037;-86
2021/05/13 08:14:28;;;;;;;33.80;21.80;;;;;;;;;;4939984;28;20031;-87
2021/05/13 08:16:56;;;;;;;28.67;19.38;;;;;;;;;;4955457;28;20043;-86
2021/05/13 08:19:22;;;;;;;23.83;15.00;;;;;;;;;;4962560;28;20038;-84
2021/05/13 08:21:47;;;;;;;18.02;12.35;;;;;;;;;;4966269;28;20058;-83
2021/05/13 08:24:12;;;;;;;17.52;11.00;;;;;;;;;;4971091;28;20394;-84
2021/05/13 08:26:38;;;;;;;15.68;9.70;;;;;;;;;;4959454;28;20413;-82
2021/05/13 08:29:03;;;;;;;14.65;6.45;;;;;;;;;;4959475;28;20470;-82
2021/05/13 08:31:29;;;;;;;7.60;3.08;;;;;;;;;;4956530;28;20039;-81
2021/05/13 08:33:54;;;;;;;4.50;1.48;;;;;;;;;;4958521;28;20062;-82
2021/05/13 08:36:20;;;;;;;4.32;1.50;;;;;;;;;;4958834;28;20490;-83
2021/05/13 08:38:46;;;;;;;5.55;1.70;;;;;;;;;;4942536;28;20065;-82
2021/05/13 08:41:11;;;;;;;10.05;2.00;;;;;;;;;;4942677;28;20045;-83
2021/05/13 08:43:36;;;;;;;4.53;1.00;;;;;;;;;;4941579;28;20126;-82
2021/05/13 08:46:02;;;;;;;4.25;1.40;;;;;;;;;;4941761;28;20050;-83
2021/05/13 08:48:29;;;;;;;3.30;0.98;;;;;;;;;;4942854;28;20049;-83
2021/05/13 08:50:55;;;;;;;3.63;0.93;;;;;;;;;;4942665;28;20133;-84
2021/05/13 08:53:21;;;;;;;6.50;1.40;;;;;;;;;;4942500;28;20038;-82
2021/05/13 08:55:46;;;;;;;9.27;1.85;;;;;;;;;;4958364;28;20042;-80
2021/05/13 08:58:12;;;;;;;5.32;1.42;;;;;;;;;;4958206;28;20436;-80
2021/05/13 09:00:39;;;;;;;5.97;1.35;;;;;;;;;;4951613;28;20065;-80
2021/05/13 09:03:04;;;;;;;4.80;1.10;;;;;;;;;;4993237;28;20062;-80
2021/05/13 09:05:29;;;;;;;2.92;1.00;;;;;;;;;;4959835;28;20045;-81
2021/05/13 09:07:55;;;;;;;3.53;1.05;;;;;;;;;;4957674;28;20101;-80
2021/05/13 09:10:21;;;;;;;5.93;1.10;;;;;;;;;;4926118;28;20493;-84
2021/05/13 09:12:51;;;;;;;4.28;1.33;;;;;;;;;;4926140;28;20094;-84
2021/05/13 09:15:19;;;;;;;8.63;1.38;;;;;;;;;;4942669;28;20520;-84
2021/05/13 09:17:56;;;;;;;5.93;1.00;;;;;;;;;;4966809;28;20037;-83
2021/05/13 09:20:26;;;;;;;12.15;1.88;;;;;;;;;;4996590;28;20037;-86
2021/05/13 09:22:52;;;;;;;8.23;1.65;;;;;;;;;;4977594;28;20026;-81
2021/05/13 09:25:17;;;;;;;9.00;1.20;;;;;;;;;;4980552;28;20091;-83
2021/05/13 09:27:44;;;;;;;7.50;1.83;;;;;;;;;;4980092;28;20026;-83
2021/05/13 09:30:17;;;;;;;6.32;1.27;;;;;;;;;;4996911;28;20038;-84
2021/05/13 09:32:54;;;;;;;8.82;1.92;;;;;;;;;;4959854;28;20045;-84
2021/05/13 09:35:26;;;;;;;8.60;1.25;;;;;;;;;;4942596;28;20607;-84
2021/05/13 09:37:59;;;;;;;12.95;2.00;;;;;;;;;;4974367;28;20448;-83
2021/05/13 09:40:38;;;;;;;7.43;1.50;;;;;;;;;;4941419;28;20517;-84
2021/05/13 09:43:20;;;;;;;5.68;1.38;;;;;;;;;;4958557;28;20034;-85
2021/05/13 09:45:53;;;;;;;4.82;1.08;;;;;;;;;;4960734;28;20505;-86
2021/05/13 09:48:38;;;;;;;3.10;0.85;;;;;;;;;;4961024;28;20500;-84
2021/05/13 09:51:20;;;;;;;8.98;1.52;;;;;;;;;;4975719;28;20030;-84
2021/05/13 09:53:46;;;;;;;9.17;1.57;;;;;;;;;;4973611;28;20098;-85
2021/05/13 09:56:22;;;;;;;8.93;1.52;;;;;;;;;;4941619;28;20118;-84
2021/05/13 09:58:48;;;;;;;4.28;1.10;;;;;;;;;;4967412;28;20046;-90
2021/05/13 10:01:14;;;;;;;8.63;1.83;;;;;;;;;;4960877;28;20453;-90
2021/05/13 10:03:39;;;;;;;10.82;2.60;;;;;;;;;;4990991;28;20046;-88
2021/05/13 10:06:05;;;;;;;9.48;3.78;;;;;;;;;;4958858;28;20112;-89
2021/05/13 10:08:31;;;;;;;9.23;3.13;;;;;;;;;;4943122;28;20382;-86
2021/05/13 10:10:56;;;;;;;6.88;2.38;;;;;;;;;;4959635;28;20073;-82
2021/05/13 10:13:28;;;;;;;8.60;3.15;;;;;;;;;;4972099;28;20042;-85
2021/05/13 10:15:53;;;;;;;7.85;2.55;;;;;;;;;;4960758;28;20528;-80
2021/05/13 10:18:40;;;;;;;8.40;2.92;;;;;;;;;;4985909;28;20034;-81
2021/05/13 10:21:17;;;;;;;12.90;3.20;;;;;;;;;;4977409;28;20034;-80
2021/05/13 10:23:42;;;;;;;7.97;2.50;;;;;;;;;;5008336;28;20045;-80
2021/05/13 10:26:16;;;;;;;9.77;2.45;;;;;;;;;;4991615;28;20042;-80
2021/05/13 10:28:42;;;;;;;5.90;2.65;;;;;;;;;;5024657;28;20113;-80
2021/05/13 10:31:07;;;;;;;9.98;2.83;;;;;;;;;;5011305;28;20072;-80
2021/05/13 10:33:47;;;;;;;8.48;2.88;;;;;;;;;;4978805;28;20042;-79
2021/05/13 10:36:19;;;;;;;9.32;3.15;;;;;;;;;;4962945;28;20050;-80
2021/05/13 10:38:49;;;;;;;7.85;2.58;;;;;;;;;;4978361;28;20144;-79
2021/05/13 10:41:31;;;;;;;7.40;2.40;;;;;;;;;;4995199;28;20518;-79
2021/05/13 10:44:09;;;;;;;6.57;2.42;;;;;;;;;;4988896;28;20042;-79
2021/05/13 10:46:34;;;;;;;8.73;3.17;;;;;;;;;;4989344;28;20161;-79
2021/05/13 10:49:26;;;;;;;7.60;2.20;;;;;;;;;;4975500;28;20117;-79
2021/05/13 10:51:58;;;;;;;5.68;2.55;;;;;;;;;;4967052;28;20051;-80
2021/05/13 10:54:29;;;;;;;6.88;1.90;;;;;;;;;;4971431;28;20516;-79
2021/05/13 10:57:17;;;;;;;6.13;1.90;;;;;;;;;;4971804;28;20121;-81
2021/05/13 11:00:05;;;;;;;7.25;2.30;;;;;;;;;;4959467;28;20285;-78
2021/05/13 11:02:47;;;;;;;8.15;2.15;;;;;;;;;;4991502;28;20026;-79
2021/05/13 11:05:31;;;;;;;4.88;1.83;;;;;;;;;;4960519;28;20038;-79
2021/05/13 11:08:01;;;;;;;3.80;1.38;;;;;;;;;;4991603;28;20034;-80
2021/05/13 11:10:56;;;;;;;4.80;1.40;;;;;;;;;;4959139;28;20113;-78
2021/05/13 11:13:22;;;;;;;6.13;1.77;;;;;;;;;;4972872;28;20054;-78
2021/05/13 11:15:50;;;;;;;4.15;1.33;;;;;;;;;;4956960;28;20031;-78
2021/05/13 11:18:17;;;;;;;5.78;1.85;;;;;;;;;;4959510;28;20114;-79
2021/05/13 11:20:46;;;;;;;3.33;1.23;;;;;;;;;;4959375;28;20042;-79
2021/05/13 11:23:13;;;;;;;4.45;1.35;;;;;;;;;;4988071;28;20536;-78
2021/05/13 11:25:40;;;;;;;5.70;1.52;;;;;;;;;;4939119;28;20046;-79
2021/05/13 11:28:27;;;;;;;5.57;1.50;;;;;;;;;;4939771;28;20031;-79
2021/05/13 11:31:07;;;;;;;3.83;1.20;;;;;;;;;;4971729;28;20042;-79
2021/05/13 11:33:48;;;;;;;4.75;1.40;;;;;;;;;;4972412;28;20413;-79
2021/05/13 11:36:18;;;;;;;3.60;1.45;;;;;;;;;;4939756;28;20038;-76
2021/05/13 11:38:44;;;;;;;3.30;1.15;;;;;;;;;;4955758;28;20059;-79
2021/05/13 11:41:10;;;;;;;4.60;1.35;;;;;;;;;;4955688;28;20089;-77
2021/05/13 11:43:41;;;;;;;3.58;1.40;;;;;;;;;;4955418;28;20042;-77
2021/05/13 11:46:08;;;;;;;4.20;1.20;;;;;;;;;;4942625;28;20126;-78
2021/05/13 11:48:40;;;;;;;3.78;1.20;;;;;;;;;;4963664;28;20421;-78
2021/05/13 11:51:10;;;;;;;4.00;1.38;;;;;;;;;;4965735;28;20105;-77
2021/05/13 11:53:36;;;;;;;4.43;1.50;;;;;;;;;;4990284;28;20109;-78
2021/05/13 11:56:04;;;;;;;4.32;1.65;;;;;;;;;;4939530;28;20062;-78
2021/05/13 11:58:44;;;;;;;4.43;1.45;;;;;;;;;;4939824;28;20042;-78
2021/05/13 12:01:16;;;;;;;4.38;1.52;;;;;;;;;;4950522;28;20035;-78
2021/05/13 12:03:41;;;;;;;3.53;1.17;;;;;;;;;;4966957;28;20042;-77
2021/05/13 12:06:08;;;;;;;5.45;1.30;;;;;;;;;;4976933;28;20331;-77
2021/05/13 12:08:37;;;;;;;3.25;0.90;;;;;;;;;;4978476;28;20109;-77
2021/05/13 12:11:35;;;;;;;4.22;1.30;;;;;;;;;;4978727;28;20573;-80
2021/05/13 12:14:15;;;;;;;3.97;0.95;;;;;;;;;;4971169;28;20046;-81
2021/05/13 12:16:42;;;;;;;3.78;1.08;;;;;;;;;;4979764;28;20057;-80
2021/05/13 12:19:09;;;;;;;4.65;1.05;;;;;;;;;;4978251;28;20027;-79
2021/05/13 12:21:35;;;;;;;3.67;1.20;;;;;;;;;;4959240;28;20058;-79
2021/05/13 12:24:01;;;;;;;2.25;1.10;;;;;;;;;;4974146;28;20126;-80
2021/05/13 12:26:30;;;;;;;5.32;1.65;;;;;;;;;;4963732;28;20043;-80
2021/05/13 12:28:55;;;;;;;7.95;3.95;;;;;;;;;;4956373;28;20419;-80
2021/05/13 12:31:27;;;;;;;5.95;3.70;;;;;;;;;;4967363;28;20066;-79
2021/05/13 12:33:53;;;;;;;6.35;3.35;;;;;;;;;;4942237;28;20451;-79
2021/05/13 12:36:18;;;;;;;8.57;4.00;;;;;;;;;;4942568;28;20043;-79
2021/05/13 12:38:44;;;;;;;7.85;3.15;;;;;;;;;;4963547;28;20030;-79
2021/05/13 12:41:15;;;;;;;8.57;3.60;;;;;;;;;;4974254;28;20089;-79
2021/05/13 12:43:41;;;;;;;7.63;3.50;;;;;;;;;;4956169;28;20034;-79
2021/05/13 12:46:28;;;;;;;6.03;2.85;;;;;;;;;;4955354;28;20049;-79
2021/05/13 12:48:53;;;;;;;7.88;2.55;;;;;;;;;;4993830;28;20046;-79
2021/05/13 12:51:23;;;;;;;5.72;2.70;;;;;;;;;;4977745;28;20042;-78
2021/05/13 12:53:52;;;;;;;6.32;2.65;;;;;;;;;;4961677;28;20034;-78
2021/05/13 12:56:31;;;;;;;6.90;2.33;;;;;;;;;;4959967;28;20077;-77
2021/05/13 12:59:06;;;;;;;5.05;2.05;;;;;;;;;;4983190;28;20081;-78
2021/05/13 13:01:32;;;;;;;4.68;2.00;;;;;;;;;;4968423;28;20105;-78
2021/05/13 13:03:58;;;;;;;4.13;2.15;;;;;;;;;;4987548;28;20030;-78
2021/05/13 13:06:23;;;;;;;4.22;2.00;;;;;;;;;;4959651;28;20038;-77
2021/05/13 13:08:51;;;;;;;6.93;2.38;;;;;;;;;;4950807;28;20491;-77
2021/05/13 13:11:35;;;;;;;5.85;1.77;;;;;;;;;;4991019;28;20050;-78
2021/05/13 13:14:04;;;;;;;7.25;2.15;;;;;;;;;;4975496;28;20554;-78
2021/05/13 13:16:37;;;;;;;4.22;1.77;;;;;;;;;;4961202;28;20054;-77
2021/05/13 13:19:10;;;;;;;6.35;1.85;;;;;;;;;;4958046;28;20056;-78
2021/05/13 13:21:39;;;;;;;4.53;2.30;;;;;;;;;;4963568;28;20034;-77
2021/05/13 13:24:18;;;;;;;3.78;1.92;;;;;;;;;;4961081;28;20046;-77
2021/05/13 13:26:47;;;;;;;4.90;1.80;;;;;;;;;;4970382;28;20037;-77
2021/05/13 13:29:13;;;;;;;5.03;2.25;;;;;;;;;;4981607;28;20566;-79
2021/05/13 13:31:39;;;;;;;7.05;2.45;;;;;;;;;;4953071;28;20038;-77
2021/05/13 13:34:05;;;;;;;6.75;2.33;;;;;;;;;;4950001;28;20387;-77
2021/05/13 13:36:31;;;;;;;6.65;1.98;;;;;;;;;;4949666;28;20181;-77
2021/05/13 13:38:58;;;;;;;6.47;2.22;;;;;;;;;;4965913;28;20036;-76
2021/05/13 13:41:23;;;;;;;6.68;2.33;;;;;;;;;;4938728;28;20034;-77
2021/05/13 13:43:49;;;;;;;9.60;2.22;;;;;;;;;;4966270;28;20124;-78
2021/05/13 13:46:17;;;;;;;4.38;1.80;;;;;;;;;;4966776;28;20417;-78
2021/05/13 13:48:43;;;;;;;4.65;2.13;;;;;;;;;;4965072;28;20097;-78
2021/05/13 13:51:08;;;;;;;7.32;1.60;;;;;;;;;;4967562;28;20045;-77
2021/05/13 13:53:34;;;;;;;4.40;1.70;;;;;;;;;;4966820;28;20050;-77
2021/05/13 13:56:00;;;;;;;3.70;1.50;;;;;;;;;;4965489;28;20047;-77
2021/05/13 13:58:25;;;;;;;5.75;1.73;;;;;;;;;;4951231;28;20031;-77
2021/05/13 14:00:51;;;;;;;6.00;1.98;;;;;;;;;;4949325;28;20035;-77
2021/05/13 14:03:16;;;;;;;3.63;1.13;;;;;;;;;;4951914;28;20140;-77
2021/05/13 14:05:42;;;;;;;6.75;1.70;;;;;;;;;;4967035;28;20119;-76
2021/05/13 14:08:08;;;;;;;6.03;1.30;;;;;;;;;;4965796;28;20034;-77
2021/05/13 14:10:33;;;;;;;6.05;1.60;;;;;;;;;;4966021;28;20117;-77
2021/05/13 14:12:59;;;;;;;3.22;1.15;;;;;;;;;;4967503;28;20034;-77
2021/05/13 14:15:25;;;;;;;4.75;1.00;;;;;;;;;;4953793;28;20038;-77
2021/05/13 14:17:50;;;;;;;4.82;1.10;;;;;;;;;;4947144;28;20085;-77
2021/05/13 14:20:17;;;;;;;3.58;1.10;;;;;;;;;;4975769;28;20396;-77
2021/05/13 14:22:42;;;;;;;2.33;0.63;;;;;;;;;;4977156;28;20031;-77
2021/05/13 14:25:09;;;;;;;7.28;0.70;;;;;;;;;;4973002;28;20045;-77
2021/05/13 14:27:34;;;;;;;3.92;0.80;;;;;;;;;;4972461;28;20107;-78
2021/05/13 14:30:00;;;;;;;2.08;0.60;;;;;;;;;;4971780;28;20066;-77
2021/05/13 14:32:25;;;;;;;4.20;0.80;;;;;;;;;;4977178;28;20489;-77
2021/05/13 14:34:51;;;;;;;4.45;0.75;;;;;;;;;;4969423;28;20061;-77
2021/05/13 14:37:16;;;;;;;1.80;0.68;;;;;;;;;;4959761;28;20046;-77
2021/05/13 14:39:45;;;;;;;2.60;0.50;;;;;;;;;;4960417;28;20038;-78
2021/05/13 14:42:10;;;;;;;2.97;0.50;;;;;;;;;;4974993;28;20038;-77
2021/05/13 14:44:37;;;;;;;3.33;0.45;;;;;;;;;;4974703;28;20149;-79
2021/05/13 14:47:04;;;;;;;4.55;0.50;;;;;;;;;;4959293;28;20123;-79
2021/05/13 14:49:30;;;;;;;3.72;0.80;;;;;;;;;;4959435;28;20070;-79
2021/05/13 14:51:56;;;;;;;3.00;0.50;;;;;;;;;;4975658;28;20034;-79
2021/05/13 14:54:22;;;;;;;3.15;0.63;;;;;;;;;;4959160;28;20523;-80
2021/05/13 14:56:54;;;;;;;3.22;0.47;;;;;;;;;;4952070;28;20133;-79